createdAt,value
2023-05-22T00:01:52.171Z,16.72
2023-05-22T00:04:21.759Z,16.66
2023-05-22T00:06:49.488Z,16.64
2023-05-22T00:09:16.759Z,16.55
2023-05-22T00:11:43.685Z,16.51
2023-05-22T00:14:10.547Z,16.45
2023-05-22T00:16:37.465Z,16.44
2023-05-22T00:19:04.678Z,16.47
2023-05-22T00:21:35.174Z,16.42
2023-05-22T00:24:02.653Z,16.34
2023-05-22T00:26:29.550Z,16.31
2023-05-22T00:28:56.329Z,16.42
2023-05-22T00:31:24.095Z,16.36
2023-05-22T00:33:51.017Z,16.31
2023-05-22T00:36:19.043Z,16.24
2023-05-22T00:38:46.589Z,16.25
2023-05-22T00:41:13.835Z,16.31
2023-05-22T00:43:40.711Z,16.21
2023-05-22T00:46:10.321Z,16.14
2023-05-22T00:48:37.145Z,16.05
2023-05-22T00:51:04.440Z,16.09
2023-05-22T00:53:31.940Z,16.02
2023-05-22T00:55:59.846Z,16.10
2023-05-22T00:58:27.673Z,16.02
2023-05-22T01:00:55.851Z,15.96
2023-05-22T01:03:27.218Z,15.90
2023-05-22T01:05:54.873Z,15.82
2023-05-22T01:08:22.149Z,15.82
2023-05-22T01:10:54.698Z,15.82
2023-05-22T01:13:34.715Z,15.76
2023-05-22T01:16:13.409Z,15.64
2023-05-22T01:18:46.504Z,15.63
2023-05-22T01:21:22.542Z,15.56
2023-05-22T01:24:48.589Z,15.42
2023-05-22T01:27:39.360Z,15.49
2023-05-22T01:30:27.127Z,15.46
2023-05-22T01:32:58.424Z,15.36
2023-05-22T01:35:26.445Z,15.26
2023-05-22T01:37:54.922Z,15.32
2023-05-22T01:40:22.593Z,15.32
2023-05-22T01:42:49.951Z,15.29
2023-05-22T01:45:16.809Z,15.25
2023-05-22T01:47:43.967Z,15.22
2023-05-22T01:50:11.832Z,15.16
2023-05-22T01:52:54.240Z,15.07
2023-05-22T01:55:40.595Z,14.98
2023-05-22T01:58:18.051Z,14.98
2023-05-22T02:00:47.343Z,14.86
2023-05-22T02:03:19.472Z,14.89
2023-05-22T02:05:52.136Z,14.89
2023-05-22T02:08:21.490Z,14.78
2023-05-22T02:10:50.984Z,14.89
2023-05-22T02:13:18.462Z,14.84
2023-05-22T02:15:47.232Z,14.82
2023-05-22T02:18:14.174Z,14.74
2023-05-22T02:20:42.017Z,14.74
2023-05-22T02:23:09.501Z,14.71
2023-05-22T02:25:36.352Z,14.66
2023-05-22T02:28:03.184Z,14.66
2023-05-22T02:30:30.033Z,14.65
2023-05-22T02:32:58.643Z,14.61
2023-05-22T02:35:25.515Z,14.51
2023-05-22T02:37:52.797Z,14.57
2023-05-22T02:40:19.627Z,14.54
2023-05-22T02:42:46.402Z,14.37
2023-05-22T02:45:13.334Z,14.45
2023-05-22T02:47:40.252Z,14.58
2023-05-22T02:50:07.903Z,14.40
2023-05-22T02:52:35.442Z,14.41
2023-05-22T02:55:02.282Z,14.37
2023-05-22T02:57:29.022Z,14.33
2023-05-22T02:59:55.841Z,14.34
2023-05-22T03:02:22.615Z,14.29
2023-05-22T03:04:49.353Z,14.22
2023-05-22T03:07:16.237Z,14.19
2023-05-22T03:09:43.219Z,14.14
2023-05-22T03:12:10.393Z,14.13
2023-05-22T03:14:37.183Z,14.14
2023-05-22T03:17:04.331Z,14.15
2023-05-22T03:19:31.419Z,14.08
2023-05-22T03:21:58.370Z,14.21
2023-05-22T03:24:25.164Z,14.09
2023-05-22T03:26:51.960Z,14.08
2023-05-22T03:29:18.907Z,14.00
2023-05-22T03:31:45.748Z,13.98
2023-05-22T03:34:12.747Z,13.97
2023-05-22T03:36:39.637Z,13.98
2023-05-22T03:39:06.654Z,13.99
2023-05-22T03:41:33.481Z,13.91
2023-05-22T03:44:00.329Z,14.06
2023-05-22T03:46:27.179Z,14.06
2023-05-22T03:48:54.013Z,13.97
2023-05-22T03:51:21.005Z,13.92
2023-05-22T03:53:47.904Z,14.03
2023-05-22T03:56:14.749Z,14.14
2023-05-22T03:58:41.577Z,13.99
2023-05-22T04:01:10.212Z,14.43
2023-05-22T04:03:40.141Z,14.16
2023-05-22T04:06:07.841Z,14.18
2023-05-22T04:08:35.038Z,14.11
2023-05-22T04:11:03.396Z,14.20
2023-05-22T04:13:31.613Z,14.31
2023-05-22T04:15:58.772Z,14.33
2023-05-22T04:18:25.633Z,14.30
2023-05-22T04:20:52.475Z,14.54
2023-05-22T04:23:19.265Z,14.48
2023-05-22T04:25:48.159Z,14.49
2023-05-22T04:28:17.774Z,14.50
2023-05-22T04:30:45.042Z,14.40
2023-05-22T04:33:12.967Z,14.34
2023-05-22T04:35:41.061Z,14.47
2023-05-22T04:38:08.262Z,14.61
2023-05-22T04:40:35.284Z,14.65
2023-05-22T04:43:02.112Z,14.69
2023-05-22T04:45:29.164Z,14.56
2023-05-22T04:47:56.547Z,14.75
2023-05-22T04:50:24.255Z,14.74
2023-05-22T04:52:51.210Z,14.87
2023-05-22T04:55:19.508Z,14.93
2023-05-22T04:57:47.532Z,14.99
2023-05-22T05:00:17.032Z,14.98
2023-05-22T05:02:44.172Z,15.11
2023-05-22T05:05:11.299Z,15.04
2023-05-22T05:07:39.541Z,15.12
2023-05-22T05:10:07.590Z,15.22
2023-05-22T05:12:34.699Z,15.32
2023-05-22T05:15:01.995Z,15.19
2023-05-22T05:17:29.130Z,15.41
2023-05-22T05:19:56.028Z,15.52
2023-05-22T05:22:23.204Z,15.64
2023-05-22T05:24:50.093Z,15.68
2023-05-22T05:27:17.159Z,15.73
2023-05-22T05:29:44.062Z,15.78
2023-05-22T05:32:12.787Z,16.26
2023-05-22T05:34:39.669Z,16.28
2023-05-22T05:37:06.504Z,16.35
2023-05-22T05:39:33.597Z,16.50
2023-05-22T05:42:00.578Z,16.80
2023-05-22T05:44:27.509Z,16.57
2023-05-22T05:46:54.987Z,16.90
2023-05-22T05:49:22.556Z,17.17
2023-05-22T05:51:49.352Z,17.47
2023-05-22T05:54:16.271Z,17.43
2023-05-22T05:56:43.130Z,17.51
2023-05-22T05:59:10.200Z,17.47
2023-05-22T06:01:38.837Z,17.45
2023-05-22T06:04:05.791Z,17.57
2023-05-22T06:06:36.618Z,17.68
2023-05-22T06:09:06.524Z,18.16
2023-05-22T06:11:34.206Z,18.35
2023-05-22T06:14:05.266Z,18.41
2023-05-22T06:16:32.230Z,18.51
2023-05-22T06:19:00.025Z,18.33
2023-05-22T06:21:27.085Z,18.77
2023-05-22T06:23:53.903Z,19.05
2023-05-22T06:26:20.742Z,19.08
2023-05-22T06:28:47.549Z,19.39
2023-05-22T06:31:14.679Z,19.55
2023-05-22T06:33:43.515Z,19.79
2023-05-22T06:36:14.409Z,19.87
2023-05-22T06:38:41.238Z,20.07
2023-05-22T06:41:08.282Z,20.43
2023-05-22T06:43:35.198Z,20.49
2023-05-22T06:46:02.139Z,20.40
2023-05-22T06:48:29.066Z,20.65
2023-05-22T06:50:56.025Z,20.75
2023-05-22T06:53:24.129Z,20.94
2023-05-22T06:55:51.330Z,21.08
2023-05-22T06:58:18.965Z,20.96
2023-05-22T07:00:45.879Z,20.93
2023-05-22T07:03:12.896Z,21.06
2023-05-22T07:05:39.852Z,21.08
2023-05-22T07:08:08.640Z,20.97
2023-05-22T07:10:35.470Z,21.19
2023-05-22T07:13:02.562Z,21.43
2023-05-22T07:15:29.642Z,21.65
2023-05-22T07:17:56.554Z,22.00
2023-05-22T07:20:23.573Z,22.01
2023-05-22T07:22:50.348Z,22.03
2023-05-22T07:25:17.216Z,22.47
2023-05-22T07:27:44.199Z,22.71
2023-05-22T07:30:11.495Z,22.88
2023-05-22T07:32:38.681Z,22.45
2023-05-22T07:35:06.042Z,22.64
2023-05-22T07:37:33.327Z,23.09
2023-05-22T07:40:00.210Z,22.92
2023-05-22T07:42:27.609Z,22.90
2023-05-22T07:44:54.408Z,23.30
2023-05-22T07:47:21.354Z,22.95
2023-05-22T07:49:48.251Z,23.25
2023-05-22T07:52:14.990Z,22.77
2023-05-22T07:54:43.491Z,23.48
2023-05-22T07:57:12.744Z,23.86
2023-05-22T07:59:39.508Z,23.74
2023-05-22T08:02:08.717Z,23.82
2023-05-22T08:04:35.796Z,23.85
2023-05-22T08:07:02.815Z,24.36
2023-05-22T08:09:29.705Z,25.13
2023-05-22T08:11:56.691Z,25.14
2023-05-22T08:14:23.479Z,24.94
2023-05-22T08:16:50.320Z,23.88
2023-05-22T08:19:17.267Z,25.03
2023-05-22T08:21:44.199Z,25.78
2023-05-22T08:24:11.030Z,24.66
2023-05-22T08:26:39.008Z,24.80
2023-05-22T08:29:05.944Z,25.81
2023-05-22T08:31:34.634Z,24.83
2023-05-22T08:34:05.206Z,25.48
2023-05-22T08:36:34.419Z,25.18
2023-05-22T08:39:01.744Z,25.03
2023-05-22T08:41:29.960Z,24.82
2023-05-22T08:43:57.304Z,25.57
2023-05-22T08:46:29.356Z,26.24
2023-05-22T08:48:58.174Z,27.01
2023-05-22T08:51:29.654Z,27.24
2023-05-22T08:53:57.579Z,25.95
2023-05-22T08:56:26.063Z,26.37
2023-05-22T08:58:55.227Z,25.14
2023-05-22T09:01:22.947Z,25.66
2023-05-22T09:03:51.610Z,25.66
2023-05-22T09:06:18.878Z,25.85
2023-05-22T09:08:46.370Z,25.37
2023-05-22T09:11:13.493Z,25.46
2023-05-22T09:13:41.587Z,25.25
2023-05-22T09:16:15.225Z,26.63
2023-05-22T09:18:42.843Z,26.39
2023-05-22T09:21:25.840Z,25.78
2023-05-22T09:24:01.769Z,25.72
2023-05-22T09:26:29.807Z,25.52
2023-05-22T09:29:00.264Z,26.20
2023-05-22T09:31:32.096Z,26.70
2023-05-22T09:33:59.954Z,26.59
2023-05-22T09:36:34.272Z,26.54
2023-05-22T09:39:02.211Z,26.47
2023-05-22T09:41:30.902Z,26.08
2023-05-22T09:43:59.745Z,27.38
2023-05-22T09:46:27.922Z,27.67
2023-05-22T09:48:54.868Z,26.55
2023-05-22T09:51:26.833Z,27.10
2023-05-22T09:54:02.532Z,27.02
2023-05-22T09:56:39.362Z,26.59
2023-05-22T09:59:09.818Z,26.56
2023-05-22T10:01:39.384Z,27.15
2023-05-22T10:04:09.082Z,27.06
2023-05-22T10:06:37.353Z,27.36
2023-05-22T10:09:07.908Z,27.59
2023-05-22T10:11:36.133Z,27.98
2023-05-22T10:14:05.249Z,27.89
2023-05-22T10:16:34.460Z,28.03
2023-05-22T10:19:01.477Z,27.77
2023-05-22T10:21:30.427Z,27.93
2023-05-22T10:23:59.377Z,27.55
2023-05-22T10:26:26.692Z,26.96
2023-05-22T10:29:18.284Z,27.21
2023-05-22T10:31:56.049Z,27.58
2023-05-22T10:34:47.328Z,27.98
2023-05-22T10:37:45.544Z,27.77
2023-05-22T10:40:22.317Z,28.90
2023-05-22T10:42:49.233Z,28.36
2023-05-22T10:45:17.007Z,28.14
2023-05-22T10:47:43.960Z,28.02
2023-05-22T10:50:12.193Z,28.51
2023-05-22T10:52:40.548Z,27.75
2023-05-22T10:55:09.465Z,28.62
2023-05-22T10:57:40.253Z,28.66
2023-05-22T11:00:16.008Z,28.73
2023-05-22T11:02:44.803Z,29.14
2023-05-22T11:05:25.775Z,29.41
2023-05-22T11:07:52.781Z,29.18
2023-05-22T11:10:53.207Z,29.13
2023-05-22T11:13:20.080Z,29.89
2023-05-22T11:15:47.051Z,29.22
2023-05-22T11:18:16.814Z,28.45
2023-05-22T11:20:44.613Z,28.73
2023-05-22T11:23:11.878Z,28.56
2023-05-22T11:25:41.539Z,27.97
2023-05-22T11:28:10.848Z,28.68
2023-05-22T11:30:38.521Z,28.00
2023-05-22T11:33:06.864Z,28.88
2023-05-22T11:35:34.322Z,29.40
2023-05-22T11:38:06.061Z,28.84
2023-05-22T11:40:33.017Z,28.74
2023-05-22T11:42:59.858Z,29.74
2023-05-22T11:45:27.287Z,28.89
2023-05-22T11:47:54.356Z,30.00
2023-05-22T11:50:40.193Z,29.07
2023-05-22T11:53:08.408Z,29.96
2023-05-22T11:55:35.275Z,30.02
2023-05-22T11:58:02.962Z,28.81
2023-05-22T12:00:31.609Z,30.01
2023-05-22T12:02:58.981Z,30.51
2023-05-22T12:05:25.911Z,31.17
2023-05-22T12:07:53.155Z,30.61
2023-05-22T12:10:20.107Z,29.23
2023-05-22T12:12:48.313Z,29.60
2023-05-22T12:15:20.461Z,31.06
2023-05-22T12:17:47.342Z,30.71
2023-05-22T12:20:17.057Z,30.46
2023-05-22T12:22:44.196Z,30.84
2023-05-22T12:25:15.668Z,31.30
2023-05-22T12:27:45.013Z,32.03
2023-05-22T12:30:13.911Z,32.60
2023-05-22T12:32:41.156Z,31.94
2023-05-22T12:35:16.170Z,32.75
2023-05-22T12:37:51.864Z,31.49
2023-05-22T12:40:19.311Z,31.42
2023-05-22T12:42:46.307Z,31.29
2023-05-22T12:45:13.740Z,31.34
2023-05-22T12:47:40.668Z,30.92
2023-05-22T12:50:08.427Z,30.80
2023-05-22T12:52:36.321Z,31.55
2023-05-22T12:55:03.520Z,31.83
2023-05-22T12:57:30.332Z,31.53
2023-05-22T12:59:57.178Z,31.36
2023-05-22T13:02:24.086Z,32.37
2023-05-22T13:04:51.081Z,32.05
2023-05-22T13:07:17.987Z,31.89
2023-05-22T13:09:44.861Z,31.53
2023-05-22T13:12:11.810Z,32.41
2023-05-22T13:14:40.870Z,30.83
2023-05-22T13:17:08.065Z,31.58
2023-05-22T13:19:35.179Z,31.26
2023-05-22T13:22:02.098Z,31.51
2023-05-22T13:24:28.992Z,31.93
2023-05-22T13:26:55.854Z,32.54
2023-05-22T13:29:22.665Z,32.33
2023-05-22T13:31:49.620Z,32.74
2023-05-22T13:34:16.616Z,31.99
2023-05-22T13:36:43.693Z,31.92
2023-05-22T13:39:10.559Z,32.93
2023-05-22T13:41:37.404Z,31.84
2023-05-22T13:44:04.221Z,32.50
2023-05-22T13:46:31.320Z,33.08
2023-05-22T13:48:59.755Z,33.44
2023-05-22T13:51:26.947Z,33.48
2023-05-22T13:53:53.925Z,32.59
2023-05-22T13:56:22.625Z,33.46
2023-05-22T13:58:49.846Z,34.14
2023-05-22T14:01:16.683Z,33.02
2023-05-22T14:03:44.890Z,32.05
2023-05-22T14:06:12.008Z,34.69
2023-05-22T14:08:38.944Z,34.26
2023-05-22T14:11:05.812Z,34.46
2023-05-22T14:13:32.715Z,35.01
2023-05-22T14:15:59.496Z,35.59
2023-05-22T14:18:26.284Z,34.77
2023-05-22T14:20:53.170Z,35.37
2023-05-22T14:23:20.062Z,34.69
2023-05-22T14:25:46.949Z,34.65
2023-05-22T14:28:14.339Z,34.51
2023-05-22T14:30:41.382Z,35.56
2023-05-22T14:33:08.235Z,33.60
2023-05-22T14:35:35.110Z,33.45
2023-05-22T14:38:02.298Z,33.24
2023-05-22T14:40:29.205Z,32.64
2023-05-22T14:42:56.143Z,32.54
2023-05-22T14:45:22.997Z,33.19
2023-05-22T14:47:49.907Z,33.44
2023-05-22T14:50:20.120Z,32.06
2023-05-22T14:52:48.698Z,31.97
2023-05-22T14:55:16.209Z,32.80
2023-05-22T14:57:43.105Z,30.82
2023-05-22T15:00:11.155Z,32.45
2023-05-22T15:02:38.201Z,31.72
2023-05-22T15:05:05.889Z,31.18
2023-05-22T15:07:43.093Z,31.01
2023-05-22T15:10:11.423Z,30.31
2023-05-22T15:12:38.303Z,30.48
2023-05-22T15:15:05.610Z,30.96
2023-05-22T15:17:32.715Z,30.73
2023-05-22T15:20:00.007Z,30.37
2023-05-22T15:22:26.754Z,31.22
2023-05-22T15:25:08.294Z,30.60
2023-05-22T15:27:35.887Z,29.30
2023-05-22T15:30:03.605Z,30.39
2023-05-22T15:32:32.326Z,30.47
2023-05-22T15:34:59.294Z,30.46
2023-05-22T15:37:26.155Z,29.81
2023-05-22T15:39:53.528Z,29.58
2023-05-22T15:42:20.441Z,29.51
2023-05-22T15:44:47.198Z,30.30
2023-05-22T15:47:14.064Z,31.09
2023-05-22T15:49:41.378Z,30.65
2023-05-22T15:52:08.195Z,29.67
2023-05-22T15:54:35.060Z,30.42
2023-05-22T15:57:01.829Z,29.99
2023-05-22T15:59:28.597Z,29.61
2023-05-22T16:01:55.387Z,29.46
2023-05-22T16:04:22.298Z,29.09
2023-05-22T16:06:49.227Z,29.21
2023-05-22T16:09:18.727Z,29.14
2023-05-22T16:11:45.827Z,28.42
2023-05-22T16:14:12.670Z,28.29
2023-05-22T16:16:39.625Z,28.15
2023-05-22T16:19:06.667Z,28.01
2023-05-22T16:21:33.844Z,28.25
2023-05-22T16:24:00.773Z,28.17
2023-05-22T16:26:27.593Z,28.02
2023-05-22T16:28:54.570Z,27.82
2023-05-22T16:31:21.587Z,27.83
2023-05-22T16:33:48.461Z,27.81
2023-05-22T16:36:15.286Z,27.55
2023-05-22T16:38:42.228Z,27.42
2023-05-22T16:41:09.241Z,27.29
2023-05-22T16:43:37.964Z,27.03
2023-05-22T16:46:04.781Z,27.28
2023-05-22T16:48:31.534Z,26.99
2023-05-22T16:50:58.306Z,27.03
2023-05-22T16:53:25.135Z,26.88
2023-05-22T16:55:52.277Z,26.75
2023-05-22T16:58:19.369Z,26.55
2023-05-22T17:00:46.324Z,26.54
2023-05-22T17:03:14.353Z,26.57
2023-05-22T17:05:41.537Z,27.24
2023-05-22T17:08:08.736Z,27.41
2023-05-22T17:10:35.674Z,27.41
2023-05-22T17:13:02.613Z,27.11
2023-05-22T17:15:29.400Z,26.67
2023-05-22T17:17:56.310Z,26.77
2023-05-22T17:20:26.146Z,26.36
2023-05-22T17:22:53.064Z,26.50
2023-05-22T17:25:19.954Z,26.51
2023-05-22T17:27:46.816Z,26.01
2023-05-22T17:30:13.696Z,26.13
2023-05-22T17:32:40.516Z,25.80
2023-05-22T17:35:07.630Z,25.76
2023-05-22T17:37:34.422Z,25.58
2023-05-22T17:40:01.361Z,25.64
2023-05-22T17:42:28.178Z,25.65
2023-05-22T17:44:55.126Z,25.52
2023-05-22T17:47:22.165Z,25.57
2023-05-22T17:49:49.050Z,25.42
2023-05-22T17:52:15.909Z,25.05
2023-05-22T17:54:42.791Z,25.17
2023-05-22T17:57:09.703Z,25.13
2023-05-22T17:59:38.458Z,24.92
2023-05-22T18:02:07.254Z,24.73
2023-05-22T18:04:34.092Z,24.74
2023-05-22T18:07:00.847Z,24.69
2023-05-22T18:09:27.637Z,24.62
2023-05-22T18:11:54.700Z,24.58
2023-05-22T18:14:21.481Z,24.36
2023-05-22T18:16:48.310Z,24.55
2023-05-22T18:19:15.286Z,24.36
2023-05-22T18:21:42.169Z,24.15
2023-05-22T18:24:09.053Z,24.29
2023-05-22T18:26:35.955Z,24.09
2023-05-22T18:29:02.761Z,24.06
2023-05-22T18:31:29.711Z,24.05
2023-05-22T18:33:56.730Z,23.97
2023-05-22T18:36:23.617Z,23.86
2023-05-22T18:38:50.494Z,23.87
2023-05-22T18:41:17.286Z,23.80
2023-05-22T18:43:44.112Z,23.74
2023-05-22T18:46:11.050Z,23.66
2023-05-22T18:48:37.950Z,23.55
2023-05-22T18:51:04.856Z,23.55
2023-05-22T18:53:31.796Z,23.48
2023-05-22T18:55:58.691Z,23.29
2023-05-22T18:58:25.858Z,23.25
2023-05-22T19:00:55.708Z,23.24
2023-05-22T19:03:22.674Z,23.17
2023-05-22T19:05:49.598Z,23.10
2023-05-22T19:08:16.541Z,23.13
2023-05-22T19:10:43.459Z,23.01
2023-05-22T19:13:10.268Z,22.86
2023-05-22T19:15:37.839Z,22.82
2023-05-22T19:18:04.686Z,22.62
2023-05-22T19:20:32.959Z,22.56
2023-05-22T19:22:59.866Z,22.50
2023-05-22T19:25:26.679Z,22.48
2023-05-22T19:27:53.527Z,22.38
2023-05-22T19:30:22.054Z,22.39
2023-05-22T19:32:51.448Z,22.29
2023-05-22T19:35:18.314Z,22.28
2023-05-22T19:37:45.657Z,22.16
2023-05-22T19:40:12.596Z,21.96
2023-05-22T19:42:40.138Z,21.85
2023-05-22T19:45:07.773Z,21.82
2023-05-22T19:47:34.682Z,21.81
2023-05-22T19:50:02.317Z,21.81
2023-05-22T19:52:29.113Z,21.68
2023-05-22T19:54:56.071Z,21.61
2023-05-22T19:57:22.934Z,21.68
2023-05-22T19:59:50.549Z,21.52
2023-05-22T20:02:17.420Z,21.48
2023-05-22T20:04:44.363Z,21.42
2023-05-22T20:07:11.206Z,21.39
2023-05-22T20:09:38.063Z,21.37
2023-05-22T20:12:05.261Z,21.28
2023-05-22T20:14:32.010Z,21.23
2023-05-22T20:17:03.064Z,21.22
2023-05-22T20:19:30.284Z,21.16
2023-05-22T20:21:58.473Z,21.10
2023-05-22T20:24:28.261Z,21.07
2023-05-22T20:26:55.133Z,21.03
2023-05-22T20:29:22.279Z,20.97
2023-05-22T20:31:49.424Z,20.95
2023-05-22T20:34:16.356Z,20.98
2023-05-22T20:36:45.190Z,20.90
2023-05-22T20:39:12.090Z,20.84
2023-05-22T20:41:38.892Z,20.71
2023-05-22T20:44:06.655Z,20.72
2023-05-22T20:46:34.008Z,20.65
2023-05-22T20:49:03.668Z,20.51
2023-05-22T20:51:32.866Z,20.47
2023-05-22T20:54:00.253Z,20.50
2023-05-22T20:56:27.723Z,20.52
2023-05-22T20:58:54.998Z,20.39
2023-05-22T21:01:25.146Z,20.41
2023-05-22T21:03:52.029Z,20.33
2023-05-22T21:06:19.457Z,20.33
2023-05-22T21:08:46.312Z,20.27
2023-05-22T21:11:13.271Z,20.33
2023-05-22T21:13:40.087Z,20.20
2023-05-22T21:16:07.161Z,20.16
2023-05-22T21:18:34.095Z,20.10
2023-05-22T21:21:01.042Z,20.06
2023-05-22T21:23:28.046Z,20.10
2023-05-22T21:25:54.834Z,20.04
2023-05-22T21:28:21.649Z,20.07
2023-05-22T21:30:48.496Z,20.07
2023-05-22T21:33:15.355Z,20.10
2023-05-22T21:35:42.195Z,19.99
2023-05-22T21:38:08.972Z,19.86
2023-05-22T21:40:35.820Z,19.80
2023-05-22T21:43:02.593Z,19.81
2023-05-22T21:45:29.460Z,19.69
2023-05-22T21:47:56.321Z,19.72
2023-05-22T21:50:23.172Z,19.69
2023-05-22T21:52:49.980Z,19.60
2023-05-22T21:55:16.828Z,19.60
2023-05-22T21:57:45.778Z,19.65
2023-05-22T22:00:13.493Z,19.66
2023-05-22T22:02:40.503Z,19.52
2023-05-22T22:05:07.915Z,19.45
2023-05-22T22:07:34.737Z,19.31
2023-05-22T22:10:01.567Z,19.34
2023-05-22T22:12:28.383Z,19.22
2023-05-22T22:14:55.241Z,19.22
2023-05-22T22:17:23.963Z,19.23
2023-05-22T22:19:53.781Z,19.21
2023-05-22T22:22:22.838Z,19.14
2023-05-22T22:24:50.007Z,19.10
2023-05-22T22:27:16.915Z,19.01
2023-05-22T22:29:43.949Z,18.98
2023-05-22T22:32:10.889Z,18.97
2023-05-22T22:34:37.830Z,18.89
2023-05-22T22:37:06.223Z,18.83
2023-05-22T22:39:33.187Z,18.74
2023-05-22T22:42:04.353Z,18.73
2023-05-22T22:44:31.989Z,18.71
2023-05-22T22:46:58.801Z,18.73
2023-05-22T22:49:25.611Z,18.69
2023-05-22T22:51:52.804Z,18.58
2023-05-22T22:54:19.694Z,18.60
2023-05-22T22:56:47.479Z,18.65
2023-05-22T22:59:14.324Z,18.57
2023-05-22T23:01:41.180Z,18.62
2023-05-22T23:04:08.203Z,18.54
2023-05-22T23:06:35.475Z,18.42
2023-05-22T23:09:04.054Z,18.45
2023-05-22T23:11:37.690Z,18.37
2023-05-22T23:14:08.658Z,18.33
2023-05-22T23:16:36.721Z,18.39
2023-05-22T23:19:04.472Z,18.33
2023-05-22T23:21:32.703Z,18.26
2023-05-22T23:24:00.828Z,18.30
2023-05-22T23:26:28.358Z,18.19
2023-05-22T23:28:55.277Z,18.18
2023-05-22T23:31:26.277Z,18.14
2023-05-22T23:33:53.359Z,18.08
2023-05-22T23:36:20.148Z,18.13
2023-05-22T23:38:47.336Z,18.11
2023-05-22T23:41:15.455Z,18.12
2023-05-22T23:43:42.588Z,18.01
2023-05-22T23:46:09.579Z,18.04
2023-05-22T23:48:36.309Z,17.96
2023-05-22T23:51:03.699Z,17.93
2023-05-22T23:53:30.574Z,17.89
2023-05-22T23:55:57.566Z,17.95
2023-05-22T23:58:24.331Z,17.88
